sensor_id;sensor_type;location;lat;lon;timestamp;P1;durP1;ratioP1;P2;durP2;ratioP2
17985;SDS011;9118;48.122;11.546;2023-04-06T00:00:55;11.33;;;7.63;;
17985;SDS011;9118;48.122;11.546;2023-04-06T00:03:22;10.10;;;7.63;;
17985;SDS011;9118;48.122;11.546;2023-04-06T00:05:51;11.27;;;8.27;;
17985;SDS011;9118;48.122;11.546;2023-04-06T00:08:19;14.00;;;8.83;;
17985;SDS011;9118;48.122;11.546;2023-04-06T00:10:48;11.40;;;8.03;;
17985;SDS011;9118;48.122;11.546;2023-04-06T00:13:15;12.60;;;7.93;;
17985;SDS011;9118;48.122;11.546;2023-04-06T00:15:43;14.10;;;8.03;;
17985;SDS011;9118;48.122;11.546;2023-04-06T00:18:10;12.33;;;8.73;;
17985;SDS011;9118;48.122;11.546;2023-04-06T00:20:37;12.23;;;8.33;;
17985;SDS011;9118;48.122;11.546;2023-04-06T00:23:06;10.70;;;8.17;;
17985;SDS011;9118;48.122;11.546;2023-04-06T00:25:33;11.10;;;8.23;;
17985;SDS011;9118;48.122;11.546;2023-04-06T00:28:00;10.90;;;7.53;;
17985;SDS011;9118;48.122;11.546;2023-04-06T00:30:28;11.10;;;7.87;;
17985;SDS011;9118;48.122;11.546;2023-04-06T00:32:55;11.53;;;8.30;;
17985;SDS011;9118;48.122;11.546;2023-04-06T00:35:22;10.67;;;8.40;;
17985;SDS011;9118;48.122;11.546;2023-04-06T00:37:49;10.03;;;8.10;;
17985;SDS011;9118;48.122;11.546;2023-04-06T00:40:18;10.00;;;8.10;;
17985;SDS011;9118;48.122;11.546;2023-04-06T00:42:45;11.47;;;8.20;;
17985;SDS011;9118;48.122;11.546;2023-04-06T00:45:12;10.03;;;8.00;;
17985;SDS011;9118;48.122;11.546;2023-04-06T00:47:39;13.93;;;8.80;;
17985;SDS011;9118;48.122;11.546;2023-04-06T00:50:07;12.03;;;9.10;;
17985;SDS011;9118;48.122;11.546;2023-04-06T00:52:34;15.93;;;9.33;;
17985;SDS011;9118;48.122;11.546;2023-04-06T00:55:02;14.53;;;8.33;;
17985;SDS011;9118;48.122;11.546;2023-04-06T00:57:31;15.97;;;9.00;;
17985;SDS011;9118;48.122;11.546;2023-04-06T00:59:58;11.33;;;8.63;;
17985;SDS011;9118;48.122;11.546;2023-04-06T01:02:26;10.67;;;7.87;;
17985;SDS011;9118;48.122;11.546;2023-04-06T01:04:54;13.63;;;8.80;;
17985;SDS011;9118;48.122;11.546;2023-04-06T01:07:21;12.00;;;8.03;;
17985;SDS011;9118;48.122;11.546;2023-04-06T01:09:49;9.37;;;7.67;;
17985;SDS011;9118;48.122;11.546;2023-04-06T01:12:17;10.90;;;8.17;;
17985;SDS011;9118;48.122;11.546;2023-04-06T01:14:45;12.60;;;8.20;;
17985;SDS011;9118;48.122;11.546;2023-04-06T01:17:12;10.73;;;7.93;;
17985;SDS011;9118;48.122;11.546;2023-04-06T01:19:39;11.13;;;7.70;;
17985;SDS011;9118;48.122;11.546;2023-04-06T01:22:06;13.83;;;7.87;;
17985;SDS011;9118;48.122;11.546;2023-04-06T01:24:35;10.47;;;8.00;;
17985;SDS011;9118;48.122;11.546;2023-04-06T01:27:03;10.50;;;7.73;;
17985;SDS011;9118;48.122;11.546;2023-04-06T01:29:30;10.30;;;7.77;;
17985;SDS011;9118;48.122;11.546;2023-04-06T01:31:57;13.13;;;8.00;;
17985;SDS011;9118;48.122;11.546;2023-04-06T01:34:25;10.17;;;7.87;;
17985;SDS011;9118;48.122;11.546;2023-04-06T01:36:52;10.37;;;7.93;;
17985;SDS011;9118;48.122;11.546;2023-04-06T01:39:19;10.97;;;8.27;;
17985;SDS011;9118;48.122;11.546;2023-04-06T01:41:48;13.07;;;8.37;;
17985;SDS011;9118;48.122;11.546;2023-04-06T01:44:16;10.37;;;8.00;;
17985;SDS011;9118;48.122;11.546;2023-04-06T01:46:44;19.70;;;9.57;;
17985;SDS011;9118;48.122;11.546;2023-04-06T01:49:11;11.37;;;8.03;;
17985;SDS011;9118;48.122;11.546;2023-04-06T01:51:39;12.37;;;8.50;;
17985;SDS011;9118;48.122;11.546;2023-04-06T01:54:06;11.00;;;8.40;;
17985;SDS011;9118;48.122;11.546;2023-04-06T01:56:33;12.77;;;8.33;;
17985;SDS011;9118;48.122;11.546;2023-04-06T01:59:02;11.17;;;8.10;;
17985;SDS011;9118;48.122;11.546;2023-04-06T02:01:29;11.23;;;8.30;;
17985;SDS011;9118;48.122;11.546;2023-04-06T02:03:56;14.17;;;8.43;;
17985;SDS011;9118;48.122;11.546;2023-04-06T02:06:23;12.23;;;8.63;;
17985;SDS011;9118;48.122;11.546;2023-04-06T02:08:50;15.73;;;8.20;;
17985;SDS011;9118;48.122;11.546;2023-04-06T02:11:17;11.30;;;8.30;;
17985;SDS011;9118;48.122;11.546;2023-04-06T02:13:44;10.47;;;8.13;;
17985;SDS011;9118;48.122;11.546;2023-04-06T02:16:13;16.23;;;8.60;;
17985;SDS011;9118;48.122;11.546;2023-04-06T02:18:41;12.90;;;9.03;;
17985;SDS011;9118;48.122;11.546;2023-04-06T02:21:08;12.40;;;8.60;;
17985;SDS011;9118;48.122;11.546;2023-04-06T02:23:35;12.33;;;9.17;;
17985;SDS011;9118;48.122;11.546;2023-04-06T02:26:03;11.63;;;8.57;;
17985;SDS011;9118;48.122;11.546;2023-04-06T02:28:30;12.80;;;8.83;;
17985;SDS011;9118;48.122;11.546;2023-04-06T02:30:57;15.60;;;9.27;;
17985;SDS011;9118;48.122;11.546;2023-04-06T02:33:26;12.03;;;9.53;;
17985;SDS011;9118;48.122;11.546;2023-04-06T02:35:53;17.23;;;9.60;;
17985;SDS011;9118;48.122;11.546;2023-04-06T02:38:20;15.87;;;9.43;;
17985;SDS011;9118;48.122;11.546;2023-04-06T02:40:47;12.73;;;9.03;;
17985;SDS011;9118;48.122;11.546;2023-04-06T02:43:14;13.80;;;9.20;;
17985;SDS011;9118;48.122;11.546;2023-04-06T02:45:42;13.93;;;9.10;;
17985;SDS011;9118;48.122;11.546;2023-04-06T02:48:10;13.53;;;9.30;;
17985;SDS011;9118;48.122;11.546;2023-04-06T02:50:38;12.13;;;8.93;;
17985;SDS011;9118;48.122;11.546;2023-04-06T02:53:05;13.57;;;9.27;;
17985;SDS011;9118;48.122;11.546;2023-04-06T02:55:32;17.47;;;9.30;;
17985;SDS011;9118;48.122;11.546;2023-04-06T02:57:59;18.30;;;9.57;;
17985;SDS011;9118;48.122;11.546;2023-04-06T03:00:26;15.00;;;9.83;;
17985;SDS011;9118;48.122;11.546;2023-04-06T03:02:53;16.30;;;10.27;;
17985;SDS011;9118;48.122;11.546;2023-04-06T03:05:21;12.73;;;9.10;;
17985;SDS011;9118;48.122;11.546;2023-04-06T03:07:49;12.47;;;8.97;;
17985;SDS011;9118;48.122;11.546;2023-04-06T03:10:17;13.00;;;8.97;;
17985;SDS011;9118;48.122;11.546;2023-04-06T03:12:44;12.90;;;9.60;;
17985;SDS011;9118;48.122;11.546;2023-04-06T03:15:11;13.67;;;9.63;;
17985;SDS011;9118;48.122;11.546;2023-04-06T03:17:38;13.63;;;9.50;;
17985;SDS011;9118;48.122;11.546;2023-04-06T03:20:06;13.67;;;10.17;;
17985;SDS011;9118;48.122;11.546;2023-04-06T03:22:33;13.70;;;9.33;;
17985;SDS011;9118;48.122;11.546;2023-04-06T03:25:02;12.17;;;9.60;;
17985;SDS011;9118;48.122;11.546;2023-04-06T03:27:30;13.57;;;9.70;;
17985;SDS011;9118;48.122;11.546;2023-04-06T03:29:57;17.37;;;9.37;;
17985;SDS011;9118;48.122;11.546;2023-04-06T03:32:25;18.27;;;10.07;;
17985;SDS011;9118;48.122;11.546;2023-04-06T03:34:52;13.53;;;9.50;;
17985;SDS011;9118;48.122;11.546;2023-04-06T03:37:19;17.57;;;10.53;;
17985;SDS011;9118;48.122;11.546;2023-04-06T03:39:46;18.37;;;10.00;;
17985;SDS011;9118;48.122;11.546;2023-04-06T03:42:15;14.33;;;9.83;;
17985;SDS011;9118;48.122;11.546;2023-04-06T03:44:42;13.40;;;9.73;;
17985;SDS011;9118;48.122;11.546;2023-04-06T03:47:09;15.60;;;10.20;;
17985;SDS011;9118;48.122;11.546;2023-04-06T03:49:36;13.00;;;9.73;;
17985;SDS011;9118;48.122;11.546;2023-04-06T03:52:03;15.77;;;10.20;;
17985;SDS011;9118;48.122;11.546;2023-04-06T03:54:31;14.77;;;10.20;;
17985;SDS011;9118;48.122;11.546;2023-04-06T03:57:01;17.50;;;10.90;;
17985;SDS011;9118;48.122;11.546;2023-04-06T03:59:30;15.67;;;10.13;;
17985;SDS011;9118;48.122;11.546;2023-04-06T04:01:57;16.90;;;10.40;;
17985;SDS011;9118;48.122;11.546;2023-04-06T04:04:24;20.63;;;9.77;;
17985;SDS011;9118;48.122;11.546;2023-04-06T04:06:51;15.33;;;10.43;;
17985;SDS011;9118;48.122;11.546;2023-04-06T04:09:18;23.20;;;11.07;;
17985;SDS011;9118;48.122;11.546;2023-04-06T04:11:45;21.73;;;11.53;;
17985;SDS011;9118;48.122;11.546;2023-04-06T04:14:12;17.13;;;10.77;;
17985;SDS011;9118;48.122;11.546;2023-04-06T04:16:41;16.60;;;10.83;;
17985;SDS011;9118;48.122;11.546;2023-04-06T04:19:09;14.53;;;10.63;;
17985;SDS011;9118;48.122;11.546;2023-04-06T04:21:41;15.73;;;10.27;;
17985;SDS011;9118;48.122;11.546;2023-04-06T04:24:09;18.77;;;10.27;;
17985;SDS011;9118;48.122;11.546;2023-04-06T04:26:37;16.83;;;11.00;;
17985;SDS011;9118;48.122;11.546;2023-04-06T04:29:07;30.07;;;12.17;;
17985;SDS011;9118;48.122;11.546;2023-04-06T04:31:34;19.80;;;11.70;;
17985;SDS011;9118;48.122;11.546;2023-04-06T04:34:03;29.93;;;12.40;;
17985;SDS011;9118;48.122;11.546;2023-04-06T04:36:31;21.67;;;11.47;;
17985;SDS011;9118;48.122;11.546;2023-04-06T04:39:00;17.17;;;10.83;;
17985;SDS011;9118;48.122;11.546;2023-04-06T04:41:28;17.57;;;10.90;;
17985;SDS011;9118;48.122;11.546;2023-04-06T04:43:56;20.13;;;11.83;;
17985;SDS011;9118;48.122;11.546;2023-04-06T04:46:23;18.93;;;11.07;;
17985;SDS011;9118;48.122;11.546;2023-04-06T04:48:51;20.57;;;11.70;;
17985;SDS011;9118;48.122;11.546;2023-04-06T04:51:20;16.27;;;10.57;;
17985;SDS011;9118;48.122;11.546;2023-04-06T04:53:49;16.67;;;10.57;;
17985;SDS011;9118;48.122;11.546;2023-04-06T04:56:17;18.40;;;10.57;;
17985;SDS011;9118;48.122;11.546;2023-04-06T04:58:45;15.43;;;10.27;;
17985;SDS011;9118;48.122;11.546;2023-04-06T05:01:12;23.43;;;10.87;;
17985;SDS011;9118;48.122;11.546;2023-04-06T05:03:39;16.50;;;10.53;;
17985;SDS011;9118;48.122;11.546;2023-04-06T05:06:06;15.87;;;11.00;;
17985;SDS011;9118;48.122;11.546;2023-04-06T05:08:35;22.40;;;10.63;;
17985;SDS011;9118;48.122;11.546;2023-04-06T05:11:02;17.17;;;10.13;;
17985;SDS011;9118;48.122;11.546;2023-04-06T05:13:30;16.17;;;10.00;;
17985;SDS011;9118;48.122;11.546;2023-04-06T05:15:57;19.37;;;10.60;;
17985;SDS011;9118;48.122;11.546;2023-04-06T05:18:27;18.87;;;10.87;;
17985;SDS011;9118;48.122;11.546;2023-04-06T05:20:54;16.47;;;9.93;;
17985;SDS011;9118;48.122;11.546;2023-04-06T05:23:21;16.37;;;10.53;;
17985;SDS011;9118;48.122;11.546;2023-04-06T05:25:51;20.50;;;10.33;;
17985;SDS011;9118;48.122;11.546;2023-04-06T05:28:18;22.90;;;11.23;;
17985;SDS011;9118;48.122;11.546;2023-04-06T05:30:46;15.60;;;10.00;;
17985;SDS011;9118;48.122;11.546;2023-04-06T05:33:13;24.57;;;10.10;;
17985;SDS011;9118;48.122;11.546;2023-04-06T05:35:41;16.17;;;10.33;;
17985;SDS011;9118;48.122;11.546;2023-04-06T05:38:09;17.67;;;10.67;;
17985;SDS011;9118;48.122;11.546;2023-04-06T05:40:36;19.03;;;9.97;;
17985;SDS011;9118;48.122;11.546;2023-04-06T05:43:07;17.07;;;10.23;;
17985;SDS011;9118;48.122;11.546;2023-04-06T05:45:35;20.83;;;10.30;;
17985;SDS011;9118;48.122;11.546;2023-04-06T05:48:03;15.20;;;9.33;;
17985;SDS011;9118;48.122;11.546;2023-04-06T05:50:31;18.13;;;9.80;;
17985;SDS011;9118;48.122;11.546;2023-04-06T05:52:58;17.20;;;10.23;;
17985;SDS011;9118;48.122;11.546;2023-04-06T05:55:25;21.20;;;10.03;;
17985;SDS011;9118;48.122;11.546;2023-04-06T05:57:53;14.03;;;9.43;;
17985;SDS011;9118;48.122;11.546;2023-04-06T06:00:21;15.30;;;10.20;;
17985;SDS011;9118;48.122;11.546;2023-04-06T06:02:49;16.03;;;10.03;;
17985;SDS011;9118;48.122;11.546;2023-04-06T06:05:16;23.33;;;10.97;;
17985;SDS011;9118;48.122;11.546;2023-04-06T06:07:44;20.50;;;9.93;;
17985;SDS011;9118;48.122;11.546;2023-04-06T06:10:11;18.03;;;10.00;;
17985;SDS011;9118;48.122;11.546;2023-04-06T06:12:38;13.70;;;10.10;;
17985;SDS011;9118;48.122;11.546;2023-04-06T06:15:06;13.77;;;9.90;;
17985;SDS011;9118;48.122;11.546;2023-04-06T06:17:39;17.40;;;10.77;;
17985;SDS011;9118;48.122;11.546;2023-04-06T06:20:09;19.43;;;10.63;;
17985;SDS011;9118;48.122;11.546;2023-04-06T06:22:51;24.70;;;10.73;;
17985;SDS011;9118;48.122;11.546;2023-04-06T06:25:20;12.27;;;9.00;;
17985;SDS011;9118;48.122;11.546;2023-04-06T06:27:49;14.30;;;8.87;;
17985;SDS011;9118;48.122;11.546;2023-04-06T06:30:20;17.70;;;10.30;;
17985;SDS011;9118;48.122;11.546;2023-04-06T06:32:49;14.97;;;10.13;;
17985;SDS011;9118;48.122;11.546;2023-04-06T06:35:25;14.07;;;10.30;;
17985;SDS011;9118;48.122;11.546;2023-04-06T06:37:52;21.07;;;11.37;;
17985;SDS011;9118;48.122;11.546;2023-04-06T06:40:21;21.37;;;11.83;;
17985;SDS011;9118;48.122;11.546;2023-04-06T06:42:49;18.90;;;11.10;;
17985;SDS011;9118;48.122;11.546;2023-04-06T06:45:18;20.37;;;10.93;;
17985;SDS011;9118;48.122;11.546;2023-04-06T06:47:46;14.90;;;10.03;;
17985;SDS011;9118;48.122;11.546;2023-04-06T06:50:31;17.23;;;10.33;;
17985;SDS011;9118;48.122;11.546;2023-04-06T06:53:12;17.50;;;10.77;;
17985;SDS011;9118;48.122;11.546;2023-04-06T06:55:40;17.93;;;10.60;;
17985;SDS011;9118;48.122;11.546;2023-04-06T06:58:09;23.03;;;11.03;;
17985;SDS011;9118;48.122;11.546;2023-04-06T07:00:37;19.30;;;10.70;;
17985;SDS011;9118;48.122;11.546;2023-04-06T07:05:58;16.90;;;10.13;;
17985;SDS011;9118;48.122;11.546;2023-04-06T07:08:28;14.17;;;9.83;;
17985;SDS011;9118;48.122;11.546;2023-04-06T07:10:56;14.43;;;9.17;;
17985;SDS011;9118;48.122;11.546;2023-04-06T07:13:29;17.63;;;10.93;;
17985;SDS011;9118;48.122;11.546;2023-04-06T07:15:56;14.53;;;10.00;;
17985;SDS011;9118;48.122;11.546;2023-04-06T07:18:37;13.73;;;9.13;;
17985;SDS011;9118;48.122;11.546;2023-04-06T07:21:09;13.50;;;9.77;;
17985;SDS011;9118;48.122;11.546;2023-04-06T07:23:38;19.03;;;9.07;;
17985;SDS011;9118;48.122;11.546;2023-04-06T07:26:06;13.80;;;9.17;;
17985;SDS011;9118;48.122;11.546;2023-04-06T07:28:35;31.93;;;15.87;;
17985;SDS011;9118;48.122;11.546;2023-04-06T07:31:04;11.10;;;8.90;;
17985;SDS011;9118;48.122;11.546;2023-04-06T07:33:36;12.40;;;8.97;;
17985;SDS011;9118;48.122;11.546;2023-04-06T07:36:07;15.43;;;9.47;;
17985;SDS011;9118;48.122;11.546;2023-04-06T07:38:49;13.33;;;9.43;;
17985;SDS011;9118;48.122;11.546;2023-04-06T07:41:28;12.77;;;8.93;;
17985;SDS011;9118;48.122;11.546;2023-04-06T07:43:56;13.20;;;9.17;;
17985;SDS011;9118;48.122;11.546;2023-04-06T07:46:24;12.60;;;8.73;;
17985;SDS011;9118;48.122;11.546;2023-04-06T07:51:50;13.27;;;9.10;;
17985;SDS011;9118;48.122;11.546;2023-04-06T07:54:19;21.27;;;10.17;;
17985;SDS011;9118;48.122;11.546;2023-04-06T07:56:47;25.73;;;13.80;;
17985;SDS011;9118;48.122;11.546;2023-04-06T07:59:14;15.23;;;10.07;;
17985;SDS011;9118;48.122;11.546;2023-04-06T08:01:45;13.23;;;9.80;;
17985;SDS011;9118;48.122;11.546;2023-04-06T08:04:14;16.47;;;9.90;;
17985;SDS011;9118;48.122;11.546;2023-04-06T08:06:45;15.43;;;10.00;;
17985;SDS011;9118;48.122;11.546;2023-04-06T08:09:19;17.17;;;11.03;;
17985;SDS011;9118;48.122;11.546;2023-04-06T08:11:46;15.63;;;9.23;;
17985;SDS011;9118;48.122;11.546;2023-04-06T08:14:14;13.63;;;9.33;;
17985;SDS011;9118;48.122;11.546;2023-04-06T08:16:41;12.37;;;8.93;;
17985;SDS011;9118;48.122;11.546;2023-04-06T08:19:13;21.13;;;11.90;;
17985;SDS011;9118;48.122;11.546;2023-04-06T08:21:52;17.43;;;12.90;;
17985;SDS011;9118;48.122;11.546;2023-04-06T08:24:34;19.13;;;10.17;;
17985;SDS011;9118;48.122;11.546;2023-04-06T08:27:02;21.83;;;11.40;;
17985;SDS011;9118;48.122;11.546;2023-04-06T08:29:51;20.20;;;12.90;;
17985;SDS011;9118;48.122;11.546;2023-04-06T08:32:19;17.87;;;11.33;;
17985;SDS011;9118;48.122;11.546;2023-04-06T08:34:47;14.57;;;10.50;;
17985;SDS011;9118;48.122;11.546;2023-04-06T08:37:24;13.03;;;9.30;;
17985;SDS011;9118;48.122;11.546;2023-04-06T08:39:55;17.70;;;9.63;;
17985;SDS011;9118;48.122;11.546;2023-04-06T08:42:25;14.50;;;9.73;;
17985;SDS011;9118;48.122;11.546;2023-04-06T08:44:59;13.53;;;9.47;;
17985;SDS011;9118;48.122;11.546;2023-04-06T08:47:27;12.77;;;9.40;;
17985;SDS011;9118;48.122;11.546;2023-04-06T08:49:55;14.50;;;9.83;;
17985;SDS011;9118;48.122;11.546;2023-04-06T08:52:25;12.27;;;9.13;;
17985;SDS011;9118;48.122;11.546;2023-04-06T08:54:58;13.23;;;9.57;;
17985;SDS011;9118;48.122;11.546;2023-04-06T08:57:27;21.23;;;11.60;;
17985;SDS011;9118;48.122;11.546;2023-04-06T08:59:56;14.83;;;10.20;;
17985;SDS011;9118;48.122;11.546;2023-04-06T09:02:24;15.53;;;9.73;;
17985;SDS011;9118;48.122;11.546;2023-04-06T09:04:53;22.20;;;13.67;;
17985;SDS011;9118;48.122;11.546;2023-04-06T09:07:21;17.63;;;10.67;;
17985;SDS011;9118;48.122;11.546;2023-04-06T09:09:52;23.40;;;10.33;;
17985;SDS011;9118;48.122;11.546;2023-04-06T09:12:24;12.67;;;9.23;;
17985;SDS011;9118;48.122;11.546;2023-04-06T09:14:53;12.60;;;9.70;;
17985;SDS011;9118;48.122;11.546;2023-04-06T09:17:23;16.43;;;9.80;;
17985;SDS011;9118;48.122;11.546;2023-04-06T09:20:01;18.50;;;9.80;;
17985;SDS011;9118;48.122;11.546;2023-04-06T09:22:35;12.27;;;9.67;;
17985;SDS011;9118;48.122;11.546;2023-04-06T09:25:06;13.80;;;9.50;;
17985;SDS011;9118;48.122;11.546;2023-04-06T09:27:44;18.27;;;10.17;;
17985;SDS011;9118;48.122;11.546;2023-04-06T09:30:12;13.03;;;10.17;;
17985;SDS011;9118;48.122;11.546;2023-04-06T09:32:45;15.70;;;9.83;;
17985;SDS011;9118;48.122;11.546;2023-04-06T09:35:16;13.33;;;10.17;;
17985;SDS011;9118;48.122;11.546;2023-04-06T09:37:46;12.57;;;9.17;;
17985;SDS011;9118;48.122;11.546;2023-04-06T09:40:31;15.30;;;10.40;;
17985;SDS011;9118;48.122;11.546;2023-04-06T09:42:58;15.13;;;10.13;;
17985;SDS011;9118;48.122;11.546;2023-04-06T09:45:28;19.60;;;11.33;;
17985;SDS011;9118;48.122;11.546;2023-04-06T09:47:57;13.27;;;9.93;;
17985;SDS011;9118;48.122;11.546;2023-04-06T09:50:24;14.00;;;10.20;;
17985;SDS011;9118;48.122;11.546;2023-04-06T09:52:54;13.97;;;9.90;;
17985;SDS011;9118;48.122;11.546;2023-04-06T09:55:28;13.47;;;10.33;;
17985;SDS011;9118;48.122;11.546;2023-04-06T09:58:06;15.80;;;9.57;;
17985;SDS011;9118;48.122;11.546;2023-04-06T10:00:40;13.63;;;10.00;;
17985;SDS011;9118;48.122;11.546;2023-04-06T10:03:17;15.93;;;10.10;;
17985;SDS011;9118;48.122;11.546;2023-04-06T10:05:59;13.53;;;9.40;;
17985;SDS011;9118;48.122;11.546;2023-04-06T10:08:30;14.27;;;10.20;;
17985;SDS011;9118;48.122;11.546;2023-04-06T10:11:22;12.47;;;9.23;;
17985;SDS011;9118;48.122;11.546;2023-04-06T10:13:52;14.70;;;9.90;;
17985;SDS011;9118;48.122;11.546;2023-04-06T10:16:22;13.87;;;9.33;;
17985;SDS011;9118;48.122;11.546;2023-04-06T10:18:55;12.10;;;9.17;;
17985;SDS011;9118;48.122;11.546;2023-04-06T10:21:30;14.03;;;9.57;;
17985;SDS011;9118;48.122;11.546;2023-04-06T10:24:11;13.67;;;10.20;;
17985;SDS011;9118;48.122;11.546;2023-04-06T10:29:41;12.17;;;9.80;;
17985;SDS011;9118;48.122;11.546;2023-04-06T10:32:31;13.40;;;9.67;;
17985;SDS011;9118;48.122;11.546;2023-04-06T10:35:16;12.93;;;9.80;;
17985;SDS011;9118;48.122;11.546;2023-04-06T10:37:46;12.80;;;10.07;;
17985;SDS011;9118;48.122;11.546;2023-04-06T10:40:24;11.80;;;9.53;;
17985;SDS011;9118;48.122;11.546;2023-04-06T10:42:54;13.80;;;10.13;;
17985;SDS011;9118;48.122;11.546;2023-04-06T10:45:33;13.67;;;9.97;;
17985;SDS011;9118;48.122;11.546;2023-04-06T10:48:04;12.63;;;9.60;;
17985;SDS011;9118;48.122;11.546;2023-04-06T10:50:57;12.97;;;9.77;;
17985;SDS011;9118;48.122;11.546;2023-04-06T10:53:40;13.87;;;10.20;;
17985;SDS011;9118;48.122;11.546;2023-04-06T10:56:14;14.10;;;9.60;;
17985;SDS011;9118;48.122;11.546;2023-04-06T10:58:48;14.23;;;10.57;;
17985;SDS011;9118;48.122;11.546;2023-04-06T11:01:17;13.33;;;10.70;;
17985;SDS011;9118;48.122;11.546;2023-04-06T11:03:46;12.27;;;9.97;;
17985;SDS011;9118;48.122;11.546;2023-04-06T11:06:18;17.50;;;10.10;;
17985;SDS011;9118;48.122;11.546;2023-04-06T11:08:46;12.50;;;10.07;;
17985;SDS011;9118;48.122;11.546;2023-04-06T11:11:14;14.47;;;10.97;;
17985;SDS011;9118;48.122;11.546;2023-04-06T11:13:44;13.27;;;10.63;;
17985;SDS011;9118;48.122;11.546;2023-04-06T11:16:14;14.17;;;10.37;;
17985;SDS011;9118;48.122;11.546;2023-04-06T11:18:51;14.90;;;10.20;;
17985;SDS011;9118;48.122;11.546;2023-04-06T11:21:20;12.67;;;10.20;;
17985;SDS011;9118;48.122;11.546;2023-04-06T11:24:07;13.00;;;10.73;;
17985;SDS011;9118;48.122;11.546;2023-04-06T11:26:37;13.70;;;10.90;;
17985;SDS011;9118;48.122;11.546;2023-04-06T11:29:10;14.07;;;10.07;;
17985;SDS011;9118;48.122;11.546;2023-04-06T11:31:41;13.23;;;10.37;;
17985;SDS011;9118;48.122;11.546;2023-04-06T11:34:10;12.77;;;10.47;;
17985;SDS011;9118;48.122;11.546;2023-04-06T11:36:39;15.50;;;10.70;;
17985;SDS011;9118;48.122;11.546;2023-04-06T11:39:08;15.07;;;9.90;;
17985;SDS011;9118;48.122;11.546;2023-04-06T11:41:36;13.07;;;10.17;;
17985;SDS011;9118;48.122;11.546;2023-04-06T11:44:04;14.07;;;10.30;;
17985;SDS011;9118;48.122;11.546;2023-04-06T11:46:33;12.17;;;9.67;;
17985;SDS011;9118;48.122;11.546;2023-04-06T11:49:02;13.00;;;9.70;;
17985;SDS011;9118;48.122;11.546;2023-04-06T11:51:29;12.53;;;9.87;;
17985;SDS011;9118;48.122;11.546;2023-04-06T11:53:56;12.30;;;9.90;;
17985;SDS011;9118;48.122;11.546;2023-04-06T11:56:24;12.27;;;8.70;;
17985;SDS011;9118;48.122;11.546;2023-04-06T11:58:54;12.50;;;9.20;;
17985;SDS011;9118;48.122;11.546;2023-04-06T12:01:23;11.40;;;9.60;;
17985;SDS011;9118;48.122;11.546;2023-04-06T12:03:52;12.37;;;9.77;;
17985;SDS011;9118;48.122;11.546;2023-04-06T12:06:26;14.93;;;10.00;;
17985;SDS011;9118;48.122;11.546;2023-04-06T12:08:53;12.57;;;9.70;;
17985;SDS011;9118;48.122;11.546;2023-04-06T12:11:20;14.00;;;10.03;;
17985;SDS011;9118;48.122;11.546;2023-04-06T12:13:47;13.00;;;9.80;;
17985;SDS011;9118;48.122;11.546;2023-04-06T12:16:14;10.03;;;8.77;;
17985;SDS011;9118;48.122;11.546;2023-04-06T12:18:44;9.80;;;8.37;;
17985;SDS011;9118;48.122;11.546;2023-04-06T12:21:11;8.87;;;7.93;;
17985;SDS011;9118;48.122;11.546;2023-04-06T12:23:45;9.10;;;7.60;;
17985;SDS011;9118;48.122;11.546;2023-04-06T12:26:12;9.00;;;7.57;;
17985;SDS011;9118;48.122;11.546;2023-04-06T12:28:40;10.70;;;8.47;;
17985;SDS011;9118;48.122;11.546;2023-04-06T12:31:15;10.13;;;8.37;;
17985;SDS011;9118;48.122;11.546;2023-04-06T12:33:42;10.87;;;9.13;;
17985;SDS011;9118;48.122;11.546;2023-04-06T12:36:13;14.60;;;10.40;;
17985;SDS011;9118;48.122;11.546;2023-04-06T12:38:55;9.70;;;7.87;;
17985;SDS011;9118;48.122;11.546;2023-04-06T12:41:23;13.87;;;8.97;;
17985;SDS011;9118;48.122;11.546;2023-04-06T12:43:50;10.77;;;8.50;;
17985;SDS011;9118;48.122;11.546;2023-04-06T12:46:17;9.87;;;7.97;;
17985;SDS011;9118;48.122;11.546;2023-04-06T12:48:45;9.57;;;7.40;;
17985;SDS011;9118;48.122;11.546;2023-04-06T12:51:18;10.90;;;7.60;;
17985;SDS011;9118;48.122;11.546;2023-04-06T12:53:47;10.47;;;8.33;;
17985;SDS011;9118;48.122;11.546;2023-04-06T12:56:15;12.30;;;8.50;;
17985;SDS011;9118;48.122;11.546;2023-04-06T12:58:43;9.27;;;7.70;;
17985;SDS011;9118;48.122;11.546;2023-04-06T13:01:11;9.73;;;7.70;;
17985;SDS011;9118;48.122;11.546;2023-04-06T13:03:39;11.23;;;8.23;;
17985;SDS011;9118;48.122;11.546;2023-04-06T13:06:07;10.73;;;8.10;;
17985;SDS011;9118;48.122;11.546;2023-04-06T13:08:35;12.87;;;8.33;;
17985;SDS011;9118;48.122;11.546;2023-04-06T13:11:05;11.67;;;8.30;;
17985;SDS011;9118;48.122;11.546;2023-04-06T13:13:35;11.37;;;9.00;;
17985;SDS011;9118;48.122;11.546;2023-04-06T13:16:03;11.03;;;9.03;;
17985;SDS011;9118;48.122;11.546;2023-04-06T13:18:32;12.20;;;8.57;;
17985;SDS011;9118;48.122;11.546;2023-04-06T13:21:03;9.43;;;8.10;;
17985;SDS011;9118;48.122;11.546;2023-04-06T13:23:31;9.93;;;8.17;;
17985;SDS011;9118;48.122;11.546;2023-04-06T13:25:59;10.33;;;8.57;;
17985;SDS011;9118;48.122;11.546;2023-04-06T13:28:29;11.37;;;8.27;;
17985;SDS011;9118;48.122;11.546;2023-04-06T13:30:57;10.90;;;8.17;;
17985;SDS011;9118;48.122;11.546;2023-04-06T13:33:26;10.07;;;8.77;;
17985;SDS011;9118;48.122;11.546;2023-04-06T13:35:53;13.43;;;9.00;;
17985;SDS011;9118;48.122;11.546;2023-04-06T13:38:20;12.80;;;8.90;;
17985;SDS011;9118;48.122;11.546;2023-04-06T13:40:49;9.37;;;8.27;;
17985;SDS011;9118;48.122;11.546;2023-04-06T13:43:16;10.23;;;8.93;;
17985;SDS011;9118;48.122;11.546;2023-04-06T13:45:51;12.00;;;9.13;;
17985;SDS011;9118;48.122;11.546;2023-04-06T13:48:21;12.80;;;9.33;;
17985;SDS011;9118;48.122;11.546;2023-04-06T13:50:51;11.17;;;8.90;;
17985;SDS011;9118;48.122;11.546;2023-04-06T13:53:32;10.10;;;8.30;;
17985;SDS011;9118;48.122;11.546;2023-04-06T13:55:59;10.53;;;8.27;;
17985;SDS011;9118;48.122;11.546;2023-04-06T13:58:26;8.67;;;7.40;;
17985;SDS011;9118;48.122;11.546;2023-04-06T14:00:55;7.27;;;6.57;;
17985;SDS011;9118;48.122;11.546;2023-04-06T14:03:31;8.37;;;7.43;;
17985;SDS011;9118;48.122;11.546;2023-04-06T14:06:00;9.67;;;7.53;;
17985;SDS011;9118;48.122;11.546;2023-04-06T14:08:36;10.47;;;7.80;;
17985;SDS011;9118;48.122;11.546;2023-04-06T14:11:04;8.57;;;6.90;;
17985;SDS011;9118;48.122;11.546;2023-04-06T14:13:33;8.03;;;7.20;;
17985;SDS011;9118;48.122;11.546;2023-04-06T14:16:05;9.37;;;7.30;;
17985;SDS011;9118;48.122;11.546;2023-04-06T14:18:36;13.13;;;9.50;;
17985;SDS011;9118;48.122;11.546;2023-04-06T14:21:03;9.00;;;7.07;;
17985;SDS011;9118;48.122;11.546;2023-04-06T14:23:34;8.13;;;7.20;;
17985;SDS011;9118;48.122;11.546;2023-04-06T14:26:02;8.73;;;7.60;;
17985;SDS011;9118;48.122;11.546;2023-04-06T14:28:35;9.47;;;6.93;;
17985;SDS011;9118;48.122;11.546;2023-04-06T14:31:22;7.53;;;6.77;;
17985;SDS011;9118;48.122;11.546;2023-04-06T14:33:51;8.93;;;7.23;;
17985;SDS011;9118;48.122;11.546;2023-04-06T14:36:20;10.03;;;7.83;;
17985;SDS011;9118;48.122;11.546;2023-04-06T14:38:52;8.00;;;7.13;;
17985;SDS011;9118;48.122;11.546;2023-04-06T14:41:20;8.57;;;7.00;;
17985;SDS011;9118;48.122;11.546;2023-04-06T14:43:51;9.10;;;7.43;;
17985;SDS011;9118;48.122;11.546;2023-04-06T14:46:22;9.00;;;7.43;;
17985;SDS011;9118;48.122;11.546;2023-04-06T14:48:55;9.73;;;6.93;;
17985;SDS011;9118;48.122;11.546;2023-04-06T14:51:23;9.23;;;7.27;;
17985;SDS011;9118;48.122;11.546;2023-04-06T14:53:57;12.07;;;7.10;;